sensor_id;sensor_type;location;lat;lon;timestamp;pressure;altitude;pressure_sealevel;temperature;humidity
10470;BME280;5282;47.052;15.458;2022-08-21T00:00:10;97189.75;;;20.65;67.70
10470;BME280;5282;47.052;15.458;2022-08-21T00:02:44;97189.28;;;20.69;68.29
10470;BME280;5282;47.052;15.458;2022-08-21T00:05:13;97186.94;;;20.60;69.26
10470;BME280;5282;47.052;15.458;2022-08-21T00:07:40;97183.81;;;20.69;69.19
10470;BME280;5282;47.052;15.458;2022-08-21T00:10:10;97178.81;;;20.65;69.94
10470;BME280;5282;47.052;15.458;2022-08-21T00:12:39;97180.16;;;20.63;68.50
10470;BME280;5282;47.052;15.458;2022-08-21T00:15:09;97177.31;;;20.58;67.91
10470;BME280;5282;47.052;15.458;2022-08-21T00:17:36;97174.22;;;20.54;69.59
10470;BME280;5282;47.052;15.458;2022-08-21T00:20:05;97177.53;;;20.56;71.42
10470;BME280;5282;47.052;15.458;2022-08-21T00:22:34;97178.59;;;20.55;70.90
10470;BME280;5282;47.052;15.458;2022-08-21T00:25:01;97167.66;;;20.55;71.28
10470;BME280;5282;47.052;15.458;2022-08-21T00:27:29;97169.84;;;20.53;71.76
10470;BME280;5282;47.052;15.458;2022-08-21T00:29:56;97166.50;;;20.51;72.66
10470;BME280;5282;47.052;15.458;2022-08-21T00:32:24;97163.19;;;20.49;71.75
10470;BME280;5282;47.052;15.458;2022-08-21T00:34:52;97163.06;;;20.44;72.00
10470;BME280;5282;47.052;15.458;2022-08-21T00:37:19;97167.09;;;20.41;72.32
10470;BME280;5282;47.052;15.458;2022-08-21T00:39:48;97166.16;;;20.47;72.63
10470;BME280;5282;47.052;15.458;2022-08-21T00:42:15;97163.66;;;20.46;74.35
10470;BME280;5282;47.052;15.458;2022-08-21T00:44:43;97163.31;;;20.42;74.32
10470;BME280;5282;47.052;15.458;2022-08-21T00:47:11;97163.56;;;20.29;74.83
10470;BME280;5282;47.052;15.458;2022-08-21T00:49:41;97160.09;;;20.33;73.72
10470;BME280;5282;47.052;15.458;2022-08-21T00:52:12;97161.66;;;20.29;75.96
10470;BME280;5282;47.052;15.458;2022-08-21T00:54:40;97155.38;;;20.17;76.82
10470;BME280;5282;47.052;15.458;2022-08-21T00:57:15;97154.19;;;20.13;77.61
10470;BME280;5282;47.052;15.458;2022-08-21T00:59:46;97148.25;;;20.16;77.88
10470;BME280;5282;47.052;15.458;2022-08-21T01:02:15;97147.88;;;20.24;77.40
10470;BME280;5282;47.052;15.458;2022-08-21T01:04:47;97152.53;;;20.12;72.55
10470;BME280;5282;47.052;15.458;2022-08-21T01:07:18;97152.63;;;20.05;75.02
10470;BME280;5282;47.052;15.458;2022-08-21T01:09:51;97157.38;;;20.10;75.68
10470;BME280;5282;47.052;15.458;2022-08-21T01:12:23;97150.25;;;20.09;76.45
10470;BME280;5282;47.052;15.458;2022-08-21T01:14:50;97149.09;;;20.04;77.55
10470;BME280;5282;47.052;15.458;2022-08-21T01:17:20;97142.88;;;19.97;77.96
10470;BME280;5282;47.052;15.458;2022-08-21T01:19:48;97145.75;;;20.02;78.53
10470;BME280;5282;47.052;15.458;2022-08-21T01:22:19;97147.53;;;20.09;78.76
10470;BME280;5282;47.052;15.458;2022-08-21T01:24:46;97140.38;;;20.08;77.71
10470;BME280;5282;47.052;15.458;2022-08-21T01:27:13;97137.44;;;20.09;77.95
10470;BME280;5282;47.052;15.458;2022-08-21T01:29:44;97139.81;;;20.06;78.87
10470;BME280;5282;47.052;15.458;2022-08-21T01:32:13;97138.75;;;20.07;78.43
10470;BME280;5282;47.052;15.458;2022-08-21T01:34:44;97137.31;;;20.04;79.00
10470;BME280;5282;47.052;15.458;2022-08-21T01:37:12;97136.13;;;20.12;77.27
10470;BME280;5282;47.052;15.458;2022-08-21T01:39:41;97136.59;;;20.09;74.91
10470;BME280;5282;47.052;15.458;2022-08-21T01:42:09;97137.56;;;20.02;73.70
10470;BME280;5282;47.052;15.458;2022-08-21T01:44:36;97134.25;;;20.12;72.07
10470;BME280;5282;47.052;15.458;2022-08-21T01:47:08;97136.13;;;20.12;72.37
10470;BME280;5282;47.052;15.458;2022-08-21T01:49:37;97134.09;;;20.07;69.67
10470;BME280;5282;47.052;15.458;2022-08-21T01:52:05;97127.19;;;20.16;70.46
10470;BME280;5282;47.052;15.458;2022-08-21T01:54:32;97125.88;;;20.19;70.64
10470;BME280;5282;47.052;15.458;2022-08-21T01:57:01;97125.19;;;20.12;70.46
10470;BME280;5282;47.052;15.458;2022-08-21T01:59:30;97122.94;;;20.21;70.74
10470;BME280;5282;47.052;15.458;2022-08-21T02:01:57;97111.75;;;20.22;71.25
10470;BME280;5282;47.052;15.458;2022-08-21T02:04:24;97116.19;;;20.11;71.85
10470;BME280;5282;47.052;15.458;2022-08-21T02:06:52;97117.00;;;20.12;71.53
10470;BME280;5282;47.052;15.458;2022-08-21T02:09:19;97120.66;;;20.17;71.39
10470;BME280;5282;47.052;15.458;2022-08-21T02:11:47;97109.50;;;20.19;70.41
10470;BME280;5282;47.052;15.458;2022-08-21T02:14:18;97113.06;;;20.08;73.02
10470;BME280;5282;47.052;15.458;2022-08-21T02:16:46;97109.16;;;20.03;72.59
10470;BME280;5282;47.052;15.458;2022-08-21T02:19:15;97107.25;;;20.04;74.15
10470;BME280;5282;47.052;15.458;2022-08-21T02:21:42;97101.09;;;19.97;71.35
10470;BME280;5282;47.052;15.458;2022-08-21T02:24:11;97092.66;;;19.98;74.01
10470;BME280;5282;47.052;15.458;2022-08-21T02:26:39;97095.75;;;19.90;75.34
10470;BME280;5282;47.052;15.458;2022-08-21T02:29:06;97095.50;;;20.03;74.63
10470;BME280;5282;47.052;15.458;2022-08-21T02:31:35;97095.97;;;20.00;76.18
10470;BME280;5282;47.052;15.458;2022-08-21T02:34:02;97090.63;;;19.94;72.41
10470;BME280;5282;47.052;15.458;2022-08-21T02:36:29;97090.50;;;20.00;72.01
10470;BME280;5282;47.052;15.458;2022-08-21T02:38:56;97088.47;;;20.08;72.60
10470;BME280;5282;47.052;15.458;2022-08-21T02:41:23;97083.59;;;20.10;72.08
10470;BME280;5282;47.052;15.458;2022-08-21T02:43:50;97089.44;;;20.01;72.76
10470;BME280;5282;47.052;15.458;2022-08-21T02:46:18;97078.78;;;20.00;72.22
10470;BME280;5282;47.052;15.458;2022-08-21T02:48:47;97080.78;;;20.04;71.88
10470;BME280;5282;47.052;15.458;2022-08-21T02:51:16;97083.25;;;20.06;71.43
10470;BME280;5282;47.052;15.458;2022-08-21T02:53:44;97081.03;;;19.91;73.55
10470;BME280;5282;47.052;15.458;2022-08-21T02:56:16;97082.56;;;19.99;72.74
10470;BME280;5282;47.052;15.458;2022-08-21T02:58:45;97072.47;;;19.99;72.33
10470;BME280;5282;47.052;15.458;2022-08-21T03:01:13;97083.84;;;19.84;74.19
10470;BME280;5282;47.052;15.458;2022-08-21T03:03:43;97085.97;;;19.82;74.59
10470;BME280;5282;47.052;15.458;2022-08-21T03:06:14;97077.09;;;19.75;74.65
10470;BME280;5282;47.052;15.458;2022-08-21T03:08:44;97080.31;;;19.84;74.04
10470;BME280;5282;47.052;15.458;2022-08-21T03:11:12;97085.75;;;19.84;74.74
10470;BME280;5282;47.052;15.458;2022-08-21T03:13:39;97081.38;;;19.83;74.72
10470;BME280;5282;47.052;15.458;2022-08-21T03:16:07;97076.47;;;19.85;69.94
10470;BME280;5282;47.052;15.458;2022-08-21T03:18:36;97076.03;;;19.88;71.90
10470;BME280;5282;47.052;15.458;2022-08-21T03:21:03;97075.22;;;19.87;72.88
10470;BME280;5282;47.052;15.458;2022-08-21T03:23:33;97084.81;;;19.90;72.08
10470;BME280;5282;47.052;15.458;2022-08-21T03:26:00;97083.75;;;19.91;71.92
10470;BME280;5282;47.052;15.458;2022-08-21T03:28:27;97080.31;;;19.84;71.66
10470;BME280;5282;47.052;15.458;2022-08-21T03:30:54;97077.09;;;19.87;71.61
10470;BME280;5282;47.052;15.458;2022-08-21T03:33:21;97082.56;;;19.87;71.92
10470;BME280;5282;47.052;15.458;2022-08-21T03:35:54;97087.53;;;19.78;73.93
10470;BME280;5282;47.052;15.458;2022-08-21T03:38:22;97086.81;;;19.83;73.91
10470;BME280;5282;47.052;15.458;2022-08-21T03:40:50;97088.72;;;19.82;73.78
10470;BME280;5282;47.052;15.458;2022-08-21T03:43:17;97081.38;;;19.83;73.26
10470;BME280;5282;47.052;15.458;2022-08-21T03:45:44;97098.94;;;19.75;73.82
10470;BME280;5282;47.052;15.458;2022-08-21T03:48:11;97094.19;;;19.70;74.63
10470;BME280;5282;47.052;15.458;2022-08-21T03:50:41;97096.06;;;19.70;74.51
10470;BME280;5282;47.052;15.458;2022-08-21T03:53:10;97095.47;;;19.56;75.69
10470;BME280;5282;47.052;15.458;2022-08-21T03:55:37;97093.66;;;19.38;74.99
10470;BME280;5282;47.052;15.458;2022-08-21T03:58:05;97094.47;;;19.15;77.63
10470;BME280;5282;47.052;15.458;2022-08-21T04:00:33;97100.75;;;19.27;76.92
10470;BME280;5282;47.052;15.458;2022-08-21T04:03:00;97091.50;;;19.28;78.58
10470;BME280;5282;47.052;15.458;2022-08-21T04:05:27;97100.56;;;18.98;81.66
10470;BME280;5282;47.052;15.458;2022-08-21T04:07:55;97092.06;;;19.06;81.43
10470;BME280;5282;47.052;15.458;2022-08-21T04:10:24;97093.25;;;19.10;81.37
10470;BME280;5282;47.052;15.458;2022-08-21T04:12:51;97094.94;;;19.11;81.84
10470;BME280;5282;47.052;15.458;2022-08-21T04:15:20;97094.78;;;19.06;82.30
10470;BME280;5282;47.052;15.458;2022-08-21T04:17:47;97097.16;;;19.03;83.33
10470;BME280;5282;47.052;15.458;2022-08-21T04:20:15;97101.03;;;18.95;85.15
10470;BME280;5282;47.052;15.458;2022-08-21T04:22:42;97098.47;;;19.00;85.81
10470;BME280;5282;47.052;15.458;2022-08-21T04:25:10;97090.28;;;19.00;87.29
10470;BME280;5282;47.052;15.458;2022-08-21T04:27:37;97094.19;;;19.04;88.97
10470;BME280;5282;47.052;15.458;2022-08-21T04:30:06;97093.97;;;19.06;89.07
10470;BME280;5282;47.052;15.458;2022-08-21T04:32:36;97098.22;;;19.02;90.55
10470;BME280;5282;47.052;15.458;2022-08-21T04:35:06;97095.84;;;19.05;90.93
10470;BME280;5282;47.052;15.458;2022-08-21T04:37:34;97095.28;;;19.03;92.17
10470;BME280;5282;47.052;15.458;2022-08-21T04:40:01;97104.03;;;19.05;93.15
10470;BME280;5282;47.052;15.458;2022-08-21T04:42:29;97111.75;;;19.08;93.99
10470;BME280;5282;47.052;15.458;2022-08-21T04:44:56;97111.75;;;19.08;94.76
10470;BME280;5282;47.052;15.458;2022-08-21T04:47:24;97106.19;;;18.85;97.78
10470;BME280;5282;47.052;15.458;2022-08-21T04:49:52;97116.03;;;18.86;97.92
10470;BME280;5282;47.052;15.458;2022-08-21T04:52:22;97112.09;;;19.00;97.46
10470;BME280;5282;47.052;15.458;2022-08-21T04:54:50;97113.00;;;18.94;98.96
10470;BME280;5282;47.052;15.458;2022-08-21T04:57:18;97111.56;;;18.91;100.00
10470;BME280;5282;47.052;15.458;2022-08-21T04:59:49;97119.63;;;18.86;100.00
10470;BME280;5282;47.052;15.458;2022-08-21T05:02:17;97113.88;;;19.06;99.86
10470;BME280;5282;47.052;15.458;2022-08-21T05:04:51;97124.69;;;19.13;99.21
10470;BME280;5282;47.052;15.458;2022-08-21T05:07:22;97123.19;;;19.17;98.19
10470;BME280;5282;47.052;15.458;2022-08-21T05:09:51;97120.44;;;19.17;97.98
10470;BME280;5282;47.052;15.458;2022-08-21T05:12:18;97133.38;;;19.22;98.32
10470;BME280;5282;47.052;15.458;2022-08-21T05:14:46;97126.56;;;19.01;100.00
10470;BME280;5282;47.052;15.458;2022-08-21T05:17:13;97128.72;;;19.10;100.00
10470;BME280;5282;47.052;15.458;2022-08-21T05:19:40;97128.38;;;19.19;100.00
10470;BME280;5282;47.052;15.458;2022-08-21T05:22:06;97138.50;;;19.30;100.00
10470;BME280;5282;47.052;15.458;2022-08-21T05:24:36;97137.81;;;19.35;100.00
10470;BME280;5282;47.052;15.458;2022-08-21T05:27:04;97141.13;;;19.37;100.00
10470;BME280;5282;47.052;15.458;2022-08-21T05:29:32;97150.03;;;19.32;100.00
10470;BME280;5282;47.052;15.458;2022-08-21T05:31:59;97159.03;;;19.33;100.00
10470;BME280;5282;47.052;15.458;2022-08-21T05:34:27;97152.41;;;19.40;100.00
10470;BME280;5282;47.052;15.458;2022-08-21T05:36:53;97150.66;;;19.46;100.00
10470;BME280;5282;47.052;15.458;2022-08-21T05:39:20;97153.75;;;19.50;100.00
10470;BME280;5282;47.052;15.458;2022-08-21T05:41:48;97152.00;;;19.55;100.00
10470;BME280;5282;47.052;15.458;2022-08-21T05:44:17;97155.69;;;19.61;100.00
10470;BME280;5282;47.052;15.458;2022-08-21T05:46:45;97150.09;;;19.68;100.00
10470;BME280;5282;47.052;15.458;2022-08-21T05:49:12;97151.88;;;19.74;98.02
10470;BME280;5282;47.052;15.458;2022-08-21T05:51:40;97159.38;;;19.79;94.23
10470;BME280;5282;47.052;15.458;2022-08-21T05:54:07;97160.72;;;19.88;94.94
10470;BME280;5282;47.052;15.458;2022-08-21T05:56:34;97169.16;;;19.98;95.42
10470;BME280;5282;47.052;15.458;2022-08-21T05:59:03;97170.69;;;20.06;96.07
10470;BME280;5282;47.052;15.458;2022-08-21T06:01:30;97171.91;;;20.10;90.25
10470;BME280;5282;47.052;15.458;2022-08-21T06:03:57;97170.81;;;20.11;85.53
10470;BME280;5282;47.052;15.458;2022-08-21T06:06:23;97174.84;;;20.09;77.35
10470;BME280;5282;47.052;15.458;2022-08-21T06:08:50;97164.28;;;20.12;77.70
10470;BME280;5282;47.052;15.458;2022-08-21T06:11:18;97166.19;;;20.12;77.04
10470;BME280;5282;47.052;15.458;2022-08-21T06:13:45;97170.94;;;20.16;78.11
10470;BME280;5282;47.052;15.458;2022-08-21T06:16:15;97175.22;;;20.24;76.12
10470;BME280;5282;47.052;15.458;2022-08-21T06:18:43;97174.38;;;20.35;71.53
10470;BME280;5282;47.052;15.458;2022-08-21T06:21:11;97173.44;;;20.42;71.34
10470;BME280;5282;47.052;15.458;2022-08-21T06:23:39;97163.28;;;20.54;74.89
10470;BME280;5282;47.052;15.458;2022-08-21T06:26:07;97180.19;;;20.51;69.66
10470;BME280;5282;47.052;15.458;2022-08-21T06:28:36;97166.84;;;20.55;71.14
10470;BME280;5282;47.052;15.458;2022-08-21T06:31:10;97171.94;;;20.63;71.63
10470;BME280;5282;47.052;15.458;2022-08-21T06:33:38;97175.38;;;20.70;71.50
10470;BME280;5282;47.052;15.458;2022-08-21T06:36:06;97179.53;;;20.85;74.71
10470;BME280;5282;47.052;15.458;2022-08-21T06:38:36;97179.88;;;20.88;76.91
10470;BME280;5282;47.052;15.458;2022-08-21T06:41:05;97187.59;;;20.91;78.56
10470;BME280;5282;47.052;15.458;2022-08-21T06:43:33;97184.72;;;20.98;70.76
10470;BME280;5282;47.052;15.458;2022-08-21T06:46:00;97180.66;;;21.01;70.67
10470;BME280;5282;47.052;15.458;2022-08-21T06:48:29;97177.44;;;21.04;67.95
10470;BME280;5282;47.052;15.458;2022-08-21T06:51:00;97175.03;;;21.07;70.29
10470;BME280;5282;47.052;15.458;2022-08-21T06:53:28;97184.78;;;21.15;71.30
10470;BME280;5282;47.052;15.458;2022-08-21T06:55:55;97181.41;;;21.25;69.74
10470;BME280;5282;47.052;15.458;2022-08-21T06:58:24;97180.09;;;21.27;68.47
10470;BME280;5282;47.052;15.458;2022-08-21T07:00:51;97191.03;;;21.27;70.23
10470;BME280;5282;47.052;15.458;2022-08-21T07:03:22;97196.84;;;21.31;69.36
10470;BME280;5282;47.052;15.458;2022-08-21T07:05:49;97197.84;;;21.25;66.91
10470;BME280;5282;47.052;15.458;2022-08-21T07:08:18;97202.59;;;21.18;67.77
10470;BME280;5282;47.052;15.458;2022-08-21T07:10:46;97191.19;;;21.21;71.39
10470;BME280;5282;47.052;15.458;2022-08-21T07:13:14;97200.22;;;21.21;70.21
10470;BME280;5282;47.052;15.458;2022-08-21T07:15:41;97195.53;;;21.34;68.56
10470;BME280;5282;47.052;15.458;2022-08-21T07:18:08;97197.19;;;21.35;66.30
10470;BME280;5282;47.052;15.458;2022-08-21T07:20:35;97196.09;;;21.36;67.22
10470;BME280;5282;47.052;15.458;2022-08-21T07:23:07;97197.19;;;21.35;64.38
10470;BME280;5282;47.052;15.458;2022-08-21T07:25:39;97195.00;;;21.20;66.27
10470;BME280;5282;47.052;15.458;2022-08-21T07:28:06;97205.72;;;21.21;67.06
10470;BME280;5282;47.052;15.458;2022-08-21T07:30:33;97203.44;;;21.18;66.35
10470;BME280;5282;47.052;15.458;2022-08-21T07:33:00;97203.44;;;21.18;65.19
10470;BME280;5282;47.052;15.458;2022-08-21T07:35:27;97205.31;;;21.30;66.98
10470;BME280;5282;47.052;15.458;2022-08-21T07:37:54;97204.28;;;21.19;67.91
10470;BME280;5282;47.052;15.458;2022-08-21T07:40:21;97206.34;;;21.11;66.12
10470;BME280;5282;47.052;15.458;2022-08-21T07:42:50;97202.97;;;21.21;66.71
10470;BME280;5282;47.052;15.458;2022-08-21T07:45:19;97198.47;;;21.15;64.16
10470;BME280;5282;47.052;15.458;2022-08-21T07:47:46;97199.78;;;21.13;65.34
10470;BME280;5282;47.052;15.458;2022-08-21T07:50:17;97199.78;;;21.13;66.02
10470;BME280;5282;47.052;15.458;2022-08-21T07:52:45;97203.66;;;21.29;66.02
10470;BME280;5282;47.052;15.458;2022-08-21T07:55:14;97200.50;;;21.37;68.88
10470;BME280;5282;47.052;15.458;2022-08-21T07:57:41;97200.50;;;21.37;66.81
10470;BME280;5282;47.052;15.458;2022-08-21T08:00:15;97200.50;;;21.37;66.52
10470;BME280;5282;47.052;15.458;2022-08-21T08:02:44;97203.03;;;21.38;65.58
10470;BME280;5282;47.052;15.458;2022-08-21T08:05:12;97208.50;;;21.38;66.28
10470;BME280;5282;47.052;15.458;2022-08-21T08:07:42;97199.19;;;21.39;65.30
10470;BME280;5282;47.052;15.458;2022-08-21T08:10:10;97192.00;;;21.50;67.19
10470;BME280;5282;47.052;15.458;2022-08-21T08:12:39;97189.00;;;21.52;68.52
10470;BME280;5282;47.052;15.458;2022-08-21T08:15:11;97194.72;;;21.50;66.71
10470;BME280;5282;47.052;15.458;2022-08-21T08:17:40;97189.47;;;21.61;69.45
10470;BME280;5282;47.052;15.458;2022-08-21T08:20:09;97193.53;;;21.75;67.55
10470;BME280;5282;47.052;15.458;2022-08-21T08:22:38;97185.97;;;21.82;67.90
10470;BME280;5282;47.052;15.458;2022-08-21T08:25:08;97186.41;;;21.91;65.35
10470;BME280;5282;47.052;15.458;2022-08-21T08:27:36;97188.97;;;21.98;65.11
10470;BME280;5282;47.052;15.458;2022-08-21T08:30:04;97186.25;;;21.98;64.30
10470;BME280;5282;47.052;15.458;2022-08-21T08:32:32;97191.47;;;21.82;63.19
10470;BME280;5282;47.052;15.458;2022-08-21T08:35:00;97194.78;;;21.84;63.81
10470;BME280;5282;47.052;15.458;2022-08-21T08:37:27;97195.44;;;21.92;65.20
10470;BME280;5282;47.052;15.458;2022-08-21T08:39:56;97196.44;;;21.85;65.62
10470;BME280;5282;47.052;15.458;2022-08-21T08:42:26;97194.28;;;22.04;64.66
10470;BME280;5282;47.052;15.458;2022-08-21T08:44:57;97197.38;;;22.08;65.39
10470;BME280;5282;47.052;15.458;2022-08-21T08:47:27;97193.44;;;22.04;65.65
10470;BME280;5282;47.052;15.458;2022-08-21T08:50:03;97193.44;;;22.21;63.95
10470;BME280;5282;47.052;15.458;2022-08-21T08:52:32;97203.00;;;22.18;65.02
10470;BME280;5282;47.052;15.458;2022-08-21T08:55:02;97200.75;;;22.15;62.80
10470;BME280;5282;47.052;15.458;2022-08-21T08:57:31;97206.31;;;22.21;66.39
10470;BME280;5282;47.052;15.458;2022-08-21T09:00:01;97200.34;;;22.24;66.74
10470;BME280;5282;47.052;15.458;2022-08-21T09:02:29;97198.91;;;22.21;67.59
10470;BME280;5282;47.052;15.458;2022-08-21T09:04:56;97204.59;;;22.14;71.75
10470;BME280;5282;47.052;15.458;2022-08-21T09:07:35;97208.81;;;22.05;77.11
10470;BME280;5282;47.052;15.458;2022-08-21T09:10:13;97209.06;;;22.03;77.06
10470;BME280;5282;47.052;15.458;2022-08-21T09:12:51;97201.09;;;22.19;77.64
10470;BME280;5282;47.052;15.458;2022-08-21T09:15:26;97203.59;;;22.21;74.09
10470;BME280;5282;47.052;15.458;2022-08-21T09:18:23;97200.75;;;22.15;75.73
10470;BME280;5282;47.052;15.458;2022-08-21T09:21:05;97201.56;;;22.33;80.23
10470;BME280;5282;47.052;15.458;2022-08-21T09:23:55;97193.03;;;22.46;76.95
10470;BME280;5282;47.052;15.458;2022-08-21T09:26:30;97190.06;;;22.70;79.52
10470;BME280;5282;47.052;15.458;2022-08-21T09:28:59;97189.59;;;22.39;82.92
10470;BME280;5282;47.052;15.458;2022-08-21T09:31:32;97176.91;;;22.50;79.69
10470;BME280;5282;47.052;15.458;2022-08-21T09:34:00;97177.47;;;22.52;74.09
10470;BME280;5282;47.052;15.458;2022-08-21T09:36:37;97179.31;;;22.46;69.99
10470;BME280;5282;47.052;15.458;2022-08-21T09:39:07;97176.00;;;22.44;66.22
10470;BME280;5282;47.052;15.458;2022-08-21T09:41:35;97167.41;;;22.58;74.25
10470;BME280;5282;47.052;15.458;2022-08-21T09:44:05;97163.19;;;22.33;70.99
10470;BME280;5282;47.052;15.458;2022-08-21T09:46:33;97160.03;;;22.41;70.45
10470;BME280;5282;47.052;15.458;2022-08-21T09:49:03;97166.50;;;22.52;77.08
10470;BME280;5282;47.052;15.458;2022-08-21T09:51:33;97160.16;;;22.52;81.84
10470;BME280;5282;47.052;15.458;2022-08-21T09:54:14;97159.84;;;22.48;79.60
10470;BME280;5282;47.052;15.458;2022-08-21T09:56:53;97162.16;;;22.39;75.80
10470;BME280;5282;47.052;15.458;2022-08-21T09:59:38;97152.84;;;22.18;68.14
10470;BME280;5282;47.052;15.458;2022-08-21T10:02:25;97152.09;;;22.06;68.91
10470;BME280;5282;47.052;15.458;2022-08-21T10:04:54;97157.75;;;22.16;70.16
10470;BME280;5282;47.052;15.458;2022-08-21T10:07:23;97151.63;;;22.09;65.90
10470;BME280;5282;47.052;15.458;2022-08-21T10:10:01;97150.84;;;22.13;65.55
10470;BME280;5282;47.052;15.458;2022-08-21T10:12:35;97158.69;;;22.44;68.41
10470;BME280;5282;47.052;15.458;2022-08-21T10:15:12;97151.75;;;22.58;65.28
10470;BME280;5282;47.052;15.458;2022-08-21T10:17:49;97147.41;;;22.85;60.95
10470;BME280;5282;47.052;15.458;2022-08-21T10:20:21;97141.09;;;23.06;61.42
10470;BME280;5282;47.052;15.458;2022-08-21T10:22:58;97142.59;;;23.47;59.88
10470;BME280;5282;47.052;15.458;2022-08-21T10:25:33;97137.66;;;24.14;59.25
10470;BME280;5282;47.052;15.458;2022-08-21T10:28:10;97141.03;;;24.26;57.57
10470;BME280;5282;47.052;15.458;2022-08-21T10:30:46;97136.25;;;24.54;50.80
10470;BME280;5282;47.052;15.458;2022-08-21T10:33:30;97142.06;;;24.68;50.29
10470;BME280;5282;47.052;15.458;2022-08-21T10:36:05;97145.69;;;24.74;51.45
10470;BME280;5282;47.052;15.458;2022-08-21T10:38:56;97138.03;;;24.86;50.54
10470;BME280;5282;47.052;15.458;2022-08-21T10:41:39;97135.78;;;24.73;50.00
10470;BME280;5282;47.052;15.458;2022-08-21T10:44:20;97136.56;;;24.68;50.63
10470;BME280;5282;47.052;15.458;2022-08-21T10:46:54;97137.63;;;24.62;48.90
10470;BME280;5282;47.052;15.458;2022-08-21T10:49:37;97133.88;;;24.25;52.71
10470;BME280;5282;47.052;15.458;2022-08-21T10:52:22;97125.66;;;24.36;54.12
10470;BME280;5282;47.052;15.458;2022-08-21T10:54:55;97132.13;;;24.57;55.36
10470;BME280;5282;47.052;15.458;2022-08-21T10:57:30;97127.59;;;24.35;53.46
10470;BME280;5282;47.052;15.458;2022-08-21T11:00:03;97124.13;;;24.55;51.01
10470;BME280;5282;47.052;15.458;2022-08-21T11:02:35;97117.91;;;24.70;51.45
10470;BME280;5282;47.052;15.458;2022-08-21T11:05:11;97126.38;;;24.63;51.77
10470;BME280;5282;47.052;15.458;2022-08-21T11:07:44;97123.16;;;24.82;49.05
10470;BME280;5282;47.052;15.458;2022-08-21T11:10:17;97125.84;;;24.67;50.06
10470;BME280;5282;47.052;15.458;2022-08-21T11:12:52;97126.78;;;24.98;49.17
10470;BME280;5282;47.052;15.458;2022-08-21T11:15:27;97128.72;;;25.03;47.79
10470;BME280;5282;47.052;15.458;2022-08-21T11:18:01;97129.25;;;24.89;47.58
10470;BME280;5282;47.052;15.458;2022-08-21T11:20:34;97118.22;;;24.84;49.33
10470;BME280;5282;47.052;15.458;2022-08-21T11:23:11;97117.72;;;24.98;49.22
10470;BME280;5282;47.052;15.458;2022-08-21T11:25:44;97116.56;;;24.78;48.43
10470;BME280;5282;47.052;15.458;2022-08-21T11:28:17;97120.94;;;24.74;49.63
10470;BME280;5282;47.052;15.458;2022-08-21T11:30:58;97116.59;;;24.88;48.82
10470;BME280;5282;47.052;15.458;2022-08-21T11:33:36;97115.97;;;24.71;47.98
10470;BME280;5282;47.052;15.458;2022-08-21T11:36:20;97110.91;;;24.57;48.78
10470;BME280;5282;47.052;15.458;2022-08-21T11:38:55;97111.72;;;24.47;50.76
10470;BME280;5282;47.052;15.458;2022-08-21T11:41:28;97109.41;;;24.87;47.74
10470;BME280;5282;47.052;15.458;2022-08-21T11:44:04;97112.00;;;24.56;52.20
10470;BME280;5282;47.052;15.458;2022-08-21T11:46:42;97107.19;;;24.79;49.50
10470;BME280;5282;47.052;15.458;2022-08-21T11:49:32;97106.09;;;24.85;51.96
10470;BME280;5282;47.052;15.458;2022-08-21T11:52:09;97105.72;;;24.66;50.16
10470;BME280;5282;47.052;15.458;2022-08-21T11:54:43;97109.41;;;24.87;51.33
10470;BME280;5282;47.052;15.458;2022-08-21T11:57:16;97103.41;;;25.06;48.28
10470;BME280;5282;47.052;15.458;2022-08-21T11:59:51;97098.38;;;24.77;47.69
10470;BME280;5282;47.052;15.458;2022-08-21T12:02:21;97107.66;;;24.65;47.38
10470;BME280;5282;47.052;15.458;2022-08-21T12:04:53;97106.88;;;24.75;47.33
10470;BME280;5282;47.052;15.458;2022-08-21T12:07:31;97103.59;;;24.78;47.71
10470;BME280;5282;47.052;15.458;2022-08-21T12:10:00;97109.94;;;24.84;47.86
10470;BME280;5282;47.052;15.458;2022-08-21T12:12:29;97099.34;;;24.50;48.09
10470;BME280;5282;47.052;15.458;2022-08-21T12:15:25;97092.03;;;24.76;48.95
10470;BME280;5282;47.052;15.458;2022-08-21T12:17:56;97089.06;;;24.99;48.27
10470;BME280;5282;47.052;15.458;2022-08-21T12:20:39;97090.41;;;24.86;48.49
10470;BME280;5282;47.052;15.458;2022-08-21T12:23:17;97089.00;;;24.73;50.23
10470;BME280;5282;47.052;15.458;2022-08-21T12:25:47;97096.72;;;24.81;47.72
10470;BME280;5282;47.052;15.458;2022-08-21T12:28:16;97085.72;;;24.76;47.61
10470;BME280;5282;47.052;15.458;2022-08-21T12:30:49;97088.94;;;24.68;48.17
10470;BME280;5282;47.052;15.458;2022-08-21T12:33:24;97085.19;;;24.84;48.08
10470;BME280;5282;47.052;15.458;2022-08-21T12:35:53;97087.94;;;24.79;48.84
10470;BME280;5282;47.052;15.458;2022-08-21T12:38:29;97081.88;;;24.77;49.84
10470;BME280;5282;47.052;15.458;2022-08-21T12:41:03;97084.81;;;24.65;50.41
10470;BME280;5282;47.052;15.458;2022-08-21T12:43:34;97083.59;;;24.40;50.78
10470;BME280;5282;47.052;15.458;2022-08-21T12:46:04;97078.94;;;24.46;49.80
10470;BME280;5282;47.052;15.458;2022-08-21T12:48:35;97077.31;;;24.50;48.94
10470;BME280;5282;47.052;15.458;2022-08-21T12:51:10;97072.63;;;24.45;48.51
10470;BME280;5282;47.052;15.458;2022-08-21T12:53:43;97079.44;;;24.27;48.25
10470;BME280;5282;47.052;15.458;2022-08-21T12:56:13;97077.91;;;23.99;49.15
10470;BME280;5282;47.052;15.458;2022-08-21T12:58:44;97080.84;;;23.92;50.06
10470;BME280;5282;47.052;15.458;2022-08-21T13:01:19;97085.34;;;24.03;51.02
10470;BME280;5282;47.052;15.458;2022-08-21T13:03:49;97081.88;;;24.24;51.55
10470;BME280;5282;47.052;15.458;2022-08-21T13:06:17;97070.59;;;24.20;51.73
10470;BME280;5282;47.052;15.458;2022-08-21T13:08:47;97083.50;;;24.19;50.21
10470;BME280;5282;47.052;15.458;2022-08-21T13:11:16;97085.13;;;24.10;51.06
10470;BME280;5282;47.052;15.458;2022-08-21T13:13:48;97083.28;;;24.26;52.59
10470;BME280;5282;47.052;15.458;2022-08-21T13:16:19;97079.72;;;24.31;52.99